Disclaimer

Please do not use the information listed here in-flight or in-navigation, as they are not provided to us by the airports but are provided by volunteers, so they might be outdated.

Search


Regions


Airport information page

Radio informations:
Tower (TWR) - 118.4 MHz

Airport informations:
Latitude: 48° 45' 15.76" N
Longitude: 003° 28' 17.96" W
Elevation: 290 feet - 88 meters
Operating hours: Remarks
Operating agency: Civil government, landing fees and diplomatic clearance may be required
Timezone: UTC+1(+2DT) - Last Sunday in March to last Sunday in October
Fuel: Jet A1, without icing nhibitor.

100/130 MIL Spec, low lead, aviation gasoline (BLUE)

Runway information:
11/29 - 5256 x 148 feet< - >1602 x 45 meters

Recent METARs:
LFRO 181930Z AUTO 07009KT 030V130 CAVOK 07/03 Q1018 NOSIG
LFRO 182000Z AUTO 07009KT 040V110 CAVOK 07/03 Q1018 NOSIG
LFRO 182030Z AUTO 08010KT 030V110 CAVOK 07/03 Q1018 NOSIG

Airport on the map: